sensor_id;sensor_type;location;lat;lon;timestamp;pressure;altitude;pressure_sealevel;temperature;humidity
13593;BME280;6867;50.998;4.250;2022-07-10T00:01:41;102616.16;;;11.76;100.00
13593;BME280;6867;50.998;4.250;2022-07-10T00:04:09;102603.34;;;11.78;100.00
13593;BME280;6867;50.998;4.250;2022-07-10T00:06:36;102618.34;;;11.72;100.00
13593;BME280;6867;50.998;4.250;2022-07-10T00:09:06;102609.94;;;11.67;100.00
13593;BME280;6867;50.998;4.250;2022-07-10T00:11:33;102609.13;;;11.66;100.00
13593;BME280;6867;50.998;4.250;2022-07-10T00:13:59;102604.91;;;11.64;100.00
13593;BME280;6867;50.998;4.250;2022-07-10T00:16:26;102613.31;;;11.53;100.00
13593;BME280;6867;50.998;4.250;2022-07-10T00:18:53;102616.19;;;11.51;100.00
13593;BME280;6867;50.998;4.250;2022-07-10T00:21:21;102606.25;;;11.52;100.00
13593;BME280;6867;50.998;4.250;2022-07-10T00:23:48;102619.03;;;11.33;100.00
13593;BME280;6867;50.998;4.250;2022-07-10T00:26:14;102616.34;;;11.33;100.00
13593;BME280;6867;50.998;4.250;2022-07-10T00:28:41;102613.66;;;11.33;100.00
13593;BME280;6867;50.998;4.250;2022-07-10T00:31:08;102611.31;;;11.30;100.00
13593;BME280;6867;50.998;4.250;2022-07-10T00:33:36;102612.13;;;11.22;100.00
13593;BME280;6867;50.998;4.250;2022-07-10T00:36:03;102620.38;;;11.21;100.00
13593;BME280;6867;50.998;4.250;2022-07-10T00:38:31;102610.97;;;11.17;100.00
13593;BME280;6867;50.998;4.250;2022-07-10T00:40:58;102606.22;;;11.03;100.00
13593;BME280;6867;50.998;4.250;2022-07-10T00:43:25;102610.75;;;11.02;100.00
13593;BME280;6867;50.998;4.250;2022-07-10T00:45:52;102609.59;;;10.96;100.00
13593;BME280;6867;50.998;4.250;2022-07-10T00:48:19;102602.03;;;11.00;100.00
13593;BME280;6867;50.998;4.250;2022-07-10T00:50:46;102595.44;;;10.86;100.00
13593;BME280;6867;50.998;4.250;2022-07-10T00:53:13;102598.63;;;10.82;100.00
13593;BME280;6867;50.998;4.250;2022-07-10T00:55:41;102595.41;;;10.78;100.00
13593;BME280;6867;50.998;4.250;2022-07-10T00:58:10;102604.84;;;10.82;100.00
13593;BME280;6867;50.998;4.250;2022-07-10T01:00:37;102600.66;;;10.88;100.00
13593;BME280;6867;50.998;4.250;2022-07-10T01:03:05;102596.78;;;10.90;100.00
13593;BME280;6867;50.998;4.250;2022-07-10T01:05:31;102588.56;;;10.92;100.00
13593;BME280;6867;50.998;4.250;2022-07-10T01:07:58;102588.22;;;10.87;100.00
13593;BME280;6867;50.998;4.250;2022-07-10T01:10:25;102585.88;;;10.84;100.00
13593;BME280;6867;50.998;4.250;2022-07-10T01:12:53;102583.00;;;10.85;100.00
13593;BME280;6867;50.998;4.250;2022-07-10T01:15:21;102588.56;;;10.84;100.00
13593;BME280;6867;50.998;4.250;2022-07-10T01:17:47;102592.25;;;10.75;100.00
13593;BME280;6867;50.998;4.250;2022-07-10T01:20:14;102582.84;;;10.79;100.00
13593;BME280;6867;50.998;4.250;2022-07-10T01:22:43;102579.28;;;10.78;100.00
13593;BME280;6867;50.998;4.250;2022-07-10T01:25:09;102590.38;;;10.75;100.00
13593;BME280;6867;50.998;4.250;2022-07-10T01:27:37;102578.63;;;10.76;100.00
13593;BME280;6867;50.998;4.250;2022-07-10T01:30:04;102572.56;;;10.66;100.00
13593;BME280;6867;50.998;4.250;2022-07-10T01:32:38;102581.13;;;10.69;100.00
13593;BME280;6867;50.998;4.250;2022-07-10T01:35:06;102574.25;;;10.67;100.00
13593;BME280;6867;50.998;4.250;2022-07-10T01:37:33;102575.72;;;10.61;100.00
13593;BME280;6867;50.998;4.250;2022-07-10T01:40:01;102583.97;;;10.68;100.00
13593;BME280;6867;50.998;4.250;2022-07-10T01:42:28;102581.09;;;10.61;100.00
13593;BME280;6867;50.998;4.250;2022-07-10T01:44:54;102577.53;;;10.53;100.00
13593;BME280;6867;50.998;4.250;2022-07-10T01:47:21;102577.19;;;10.47;100.00
13593;BME280;6867;50.998;4.250;2022-07-10T01:49:50;102578.00;;;10.40;100.00
13593;BME280;6867;50.998;4.250;2022-07-10T01:52:18;102575.66;;;10.37;100.00
13593;BME280;6867;50.998;4.250;2022-07-10T01:54:45;102574.81;;;10.44;100.00
13593;BME280;6867;50.998;4.250;2022-07-10T01:57:13;102576.34;;;10.47;100.00
13593;BME280;6867;50.998;4.250;2022-07-10T01:59:40;102572.59;;;10.32;100.00
13593;BME280;6867;50.998;4.250;2022-07-10T02:02:07;102580.34;;;10.35;100.00
13593;BME280;6867;50.998;4.250;2022-07-10T02:04:34;102579.34;;;10.44;100.00
13593;BME280;6867;50.998;4.250;2022-07-10T02:07:10;102571.97;;;10.38;100.00
13593;BME280;6867;50.998;4.250;2022-07-10T02:09:37;102570.78;;;10.40;100.00
13593;BME280;6867;50.998;4.250;2022-07-10T02:12:05;102572.63;;;10.40;100.00
13593;BME280;6867;50.998;4.250;2022-07-10T02:14:33;102575.31;;;10.40;100.00
13593;BME280;6867;50.998;4.250;2022-07-10T02:17:00;102570.75;;;10.32;100.00
13593;BME280;6867;50.998;4.250;2022-07-10T02:19:27;102572.47;;;10.33;100.00
13593;BME280;6867;50.998;4.250;2022-07-10T02:21:54;102562.63;;;10.24;100.00
13593;BME280;6867;50.998;4.250;2022-07-10T02:24:20;102565.47;;;10.22;100.00
13593;BME280;6867;50.998;4.250;2022-07-10T02:26:47;102574.38;;;10.23;100.00
13593;BME280;6867;50.998;4.250;2022-07-10T02:29:14;102568.72;;;10.26;100.00
13593;BME280;6867;50.998;4.250;2022-07-10T02:31:42;102579.81;;;10.31;100.00
13593;BME280;6867;50.998;4.250;2022-07-10T02:34:10;102572.06;;;10.28;100.00
13593;BME280;6867;50.998;4.250;2022-07-10T02:36:38;102570.03;;;10.22;100.00
13593;BME280;6867;50.998;4.250;2022-07-10T02:39:05;102571.50;;;10.16;100.00
13593;BME280;6867;50.998;4.250;2022-07-10T02:41:32;102565.81;;;10.19;100.00
13593;BME280;6867;50.998;4.250;2022-07-10T02:44:00;102563.59;;;10.15;100.00
13593;BME280;6867;50.998;4.250;2022-07-10T02:46:26;102564.44;;;10.15;100.00
13593;BME280;6867;50.998;4.250;2022-07-10T02:48:54;102565.81;;;10.19;100.00
13593;BME280;6867;50.998;4.250;2022-07-10T02:51:21;102557.72;;;10.11;100.00
13593;BME280;6867;50.998;4.250;2022-07-10T02:53:48;102567.50;;;10.20;100.00
13593;BME280;6867;50.998;4.250;2022-07-10T02:56:15;102554.56;;;10.24;100.00
13593;BME280;6867;50.998;4.250;2022-07-10T02:58:42;102552.22;;;10.21;100.00
13593;BME280;6867;50.998;4.250;2022-07-10T03:01:09;102547.84;;;10.12;100.00
13593;BME280;6867;50.998;4.250;2022-07-10T03:03:35;102547.63;;;10.05;100.00
13593;BME280;6867;50.998;4.250;2022-07-10T03:06:04;102549.81;;;10.10;100.00
13593;BME280;6867;50.998;4.250;2022-07-10T03:08:30;102544.75;;;10.07;100.00
13593;BME280;6867;50.998;4.250;2022-07-10T03:10:57;102546.63;;;10.06;100.00
13593;BME280;6867;50.998;4.250;2022-07-10T03:13:24;102539.56;;;10.05;100.00
13593;BME280;6867;50.998;4.250;2022-07-10T03:15:53;102534.41;;;10.12;100.00
13593;BME280;6867;50.998;4.250;2022-07-10T03:18:20;102535.84;;;9.98;100.00
13593;BME280;6867;50.998;4.250;2022-07-10T03:20:47;102536.50;;;9.92;100.00
13593;BME280;6867;50.998;4.250;2022-07-10T03:23:15;102537.81;;;9.88;100.00
13593;BME280;6867;50.998;4.250;2022-07-10T03:25:41;102539.44;;;9.81;100.00
13593;BME280;6867;50.998;4.250;2022-07-10T03:28:08;102542.13;;;9.81;100.00
13593;BME280;6867;50.998;4.250;2022-07-10T03:30:35;102536.56;;;9.74;100.00
13593;BME280;6867;50.998;4.250;2022-07-10T03:33:02;102529.88;;;9.78;100.00
13593;BME280;6867;50.998;4.250;2022-07-10T03:35:29;102534.72;;;9.75;100.00
13593;BME280;6867;50.998;4.250;2022-07-10T03:37:57;102536.72;;;9.72;100.00
13593;BME280;6867;50.998;4.250;2022-07-10T03:40:28;102530.72;;;9.79;100.00
13593;BME280;6867;50.998;4.250;2022-07-10T03:42:55;102541.66;;;9.59;100.00
13593;BME280;6867;50.998;4.250;2022-07-10T03:45:21;102540.66;;;9.60;100.00
13593;BME280;6867;50.998;4.250;2022-07-10T03:47:48;102532.31;;;9.63;100.00
13593;BME280;6867;50.998;4.250;2022-07-10T03:50:15;102536.88;;;9.71;100.00
13593;BME280;6867;50.998;4.250;2022-07-10T03:52:42;102537.88;;;9.70;100.00
13593;BME280;6867;50.998;4.250;2022-07-10T03:55:09;102530.38;;;9.82;100.00
13593;BME280;6867;50.998;4.250;2022-07-10T03:57:37;102521.00;;;9.86;100.00
13593;BME280;6867;50.998;4.250;2022-07-10T04:00:23;102520.91;;;9.95;100.00
13593;BME280;6867;50.998;4.250;2022-07-10T04:02:54;102532.59;;;9.86;100.00
13593;BME280;6867;50.998;4.250;2022-07-10T04:05:22;102540.50;;;9.88;100.00
13593;BME280;6867;50.998;4.250;2022-07-10T04:07:48;102544.91;;;9.97;100.00
13593;BME280;6867;50.998;4.250;2022-07-10T04:10:16;102548.78;;;10.03;100.00
13593;BME280;6867;50.998;4.250;2022-07-10T04:12:44;102554.84;;;10.05;100.00
13593;BME280;6867;50.998;4.250;2022-07-10T04:15:11;102567.09;;;10.07;100.00
13593;BME280;6867;50.998;4.250;2022-07-10T04:17:38;102558.56;;;10.12;100.00
13593;BME280;6867;50.998;4.250;2022-07-10T04:20:06;102561.31;;;10.20;100.00
13593;BME280;6867;50.998;4.250;2022-07-10T04:22:33;102563.34;;;10.26;100.00
13593;BME280;6867;50.998;4.250;2022-07-10T04:25:00;102564.66;;;10.22;100.00
13593;BME280;6867;50.998;4.250;2022-07-10T04:27:26;102562.63;;;10.24;100.00
13593;BME280;6867;50.998;4.250;2022-07-10T04:29:55;102574.13;;;10.34;100.00
13593;BME280;6867;50.998;4.250;2022-07-10T04:32:22;102561.88;;;10.40;100.00
13593;BME280;6867;50.998;4.250;2022-07-10T04:34:48;102558.56;;;10.46;100.00
13593;BME280;6867;50.998;4.250;2022-07-10T04:37:16;102568.31;;;10.55;100.00
13593;BME280;6867;50.998;4.250;2022-07-10T04:39:43;102569.53;;;10.69;100.00
13593;BME280;6867;50.998;4.250;2022-07-10T04:42:09;102564.69;;;10.81;100.00
13593;BME280;6867;50.998;4.250;2022-07-10T04:44:36;102560.84;;;10.91;100.00
13593;BME280;6867;50.998;4.250;2022-07-10T04:47:05;102561.84;;;10.98;100.00
13593;BME280;6867;50.998;4.250;2022-07-10T04:49:33;102561.34;;;11.03;100.00
13593;BME280;6867;50.998;4.250;2022-07-10T04:52:00;102561.72;;;11.25;100.00
13593;BME280;6867;50.998;4.250;2022-07-10T04:54:27;102567.75;;;11.35;100.00
13593;BME280;6867;50.998;4.250;2022-07-10T04:56:53;102568.91;;;11.48;100.00
13593;BME280;6867;50.998;4.250;2022-07-10T04:59:20;102562.69;;;11.56;100.00
13593;BME280;6867;50.998;4.250;2022-07-10T05:01:47;102551.38;;;11.69;100.00
13593;BME280;6867;50.998;4.250;2022-07-10T05:04:15;102563.47;;;11.81;100.00
13593;BME280;6867;50.998;4.250;2022-07-10T05:06:42;102551.53;;;11.92;100.00
13593;BME280;6867;50.998;4.250;2022-07-10T05:09:08;102544.56;;;12.06;100.00
13593;BME280;6867;50.998;4.250;2022-07-10T05:11:35;102547.84;;;12.24;100.00
13593;BME280;6867;50.998;4.250;2022-07-10T05:14:02;102551.72;;;12.30;100.00
13593;BME280;6867;50.998;4.250;2022-07-10T05:16:28;102552.00;;;12.43;100.00
13593;BME280;6867;50.998;4.250;2022-07-10T05:18:55;102554.41;;;12.61;100.00
13593;BME280;6867;50.998;4.250;2022-07-10T05:21:23;102552.94;;;12.81;100.00
13593;BME280;6867;50.998;4.250;2022-07-10T05:23:50;102558.56;;;12.94;100.00
13593;BME280;6867;50.998;4.250;2022-07-10T05:26:17;102545.16;;;13.09;100.00
13593;BME280;6867;50.998;4.250;2022-07-10T05:28:44;102545.03;;;13.26;100.00
13593;BME280;6867;50.998;4.250;2022-07-10T05:31:11;102545.41;;;13.37;100.00
13593;BME280;6867;50.998;4.250;2022-07-10T05:33:38;102539.22;;;13.52;100.00
13593;BME280;6867;50.998;4.250;2022-07-10T05:36:06;102530.13;;;13.67;100.00
13593;BME280;6867;50.998;4.250;2022-07-10T05:38:35;102533.19;;;13.79;100.00
13593;BME280;6867;50.998;4.250;2022-07-10T05:41:02;102522.38;;;13.94;100.00
13593;BME280;6867;50.998;4.250;2022-07-10T05:43:28;102528.31;;;14.19;100.00
13593;BME280;6867;50.998;4.250;2022-07-10T05:45:55;102531.00;;;14.49;100.00
13593;BME280;6867;50.998;4.250;2022-07-10T05:48:22;102517.09;;;14.73;98.91
13593;BME280;6867;50.998;4.250;2022-07-10T05:50:49;102516.84;;;14.68;97.79
13593;BME280;6867;50.998;4.250;2022-07-10T05:53:16;102513.94;;;14.69;96.07
13593;BME280;6867;50.998;4.250;2022-07-10T05:55:46;102505.81;;;14.91;95.24
13593;BME280;6867;50.998;4.250;2022-07-10T05:58:13;102515.75;;;15.33;93.85
13593;BME280;6867;50.998;4.250;2022-07-10T06:00:40;102503.97;;;15.69;91.71
13593;BME280;6867;50.998;4.250;2022-07-10T06:03:08;102493.94;;;16.11;89.72
13593;BME280;6867;50.998;4.250;2022-07-10T06:05:35;102482.63;;;16.68;88.26
13593;BME280;6867;50.998;4.250;2022-07-10T06:08:02;102476.41;;;17.08;86.59
13593;BME280;6867;50.998;4.250;2022-07-10T06:10:29;102459.66;;;17.37;84.55
13593;BME280;6867;50.998;4.250;2022-07-10T06:12:57;102436.81;;;17.65;83.05
13593;BME280;6867;50.998;4.250;2022-07-10T06:15:24;102424.47;;;17.62;80.82
13593;BME280;6867;50.998;4.250;2022-07-10T06:17:50;102406.75;;;17.60;79.63
13593;BME280;6867;50.998;4.250;2022-07-10T06:20:17;102405.84;;;17.79;78.55
13593;BME280;6867;50.998;4.250;2022-07-10T06:22:44;102386.31;;;17.96;77.03
13593;BME280;6867;50.998;4.250;2022-07-10T06:25:11;102384.06;;;18.24;76.28
13593;BME280;6867;50.998;4.250;2022-07-10T06:27:38;102383.44;;;18.47;75.03
13593;BME280;6867;50.998;4.250;2022-07-10T06:30:07;102382.91;;;18.88;74.20
13593;BME280;6867;50.998;4.250;2022-07-10T06:32:34;102374.75;;;18.88;72.99
13593;BME280;6867;50.998;4.250;2022-07-10T06:35:00;102368.38;;;19.20;72.07
13593;BME280;6867;50.998;4.250;2022-07-10T06:37:29;102347.13;;;19.28;70.84
13593;BME280;6867;50.998;4.250;2022-07-10T06:39:56;102351.09;;;19.26;70.08
13593;BME280;6867;50.998;4.250;2022-07-10T06:42:23;102338.63;;;19.36;69.12
13593;BME280;6867;50.998;4.250;2022-07-10T06:44:50;102337.59;;;19.19;68.67
13593;BME280;6867;50.998;4.250;2022-07-10T06:47:19;102355.56;;;19.02;68.81
13593;BME280;6867;50.998;4.250;2022-07-10T06:50:04;102372.06;;;19.25;68.86
13593;BME280;6867;50.998;4.250;2022-07-10T06:52:31;102363.66;;;19.27;68.37
13593;BME280;6867;50.998;4.250;2022-07-10T06:54:59;102346.66;;;19.13;67.83
13593;BME280;6867;50.998;4.250;2022-07-10T06:57:26;102360.34;;;19.25;67.56
13593;BME280;6867;50.998;4.250;2022-07-10T06:59:53;102357.69;;;19.18;67.67
13593;BME280;6867;50.998;4.250;2022-07-10T07:02:21;102358.28;;;19.75;67.24
13593;BME280;6867;50.998;4.250;2022-07-10T07:04:48;102326.22;;;19.40;66.23
13593;BME280;6867;50.998;4.250;2022-07-10T07:07:15;102325.88;;;19.67;65.69
13593;BME280;6867;50.998;4.250;2022-07-10T07:09:42;102326.13;;;19.65;65.37
13593;BME280;6867;50.998;4.250;2022-07-10T07:12:09;102329.59;;;20.03;64.83
13593;BME280;6867;50.998;4.250;2022-07-10T07:14:35;102286.91;;;20.20;62.82
13593;BME280;6867;50.998;4.250;2022-07-10T07:17:04;102313.34;;;20.08;63.57
13593;BME280;6867;50.998;4.250;2022-07-10T07:19:35;102288.59;;;20.45;62.52
13593;BME280;6867;50.998;4.250;2022-07-10T07:22:20;102288.41;;;20.70;61.96
13593;BME280;6867;50.998;4.250;2022-07-10T07:25:04;102272.13;;;20.75;60.97
13593;BME280;6867;50.998;4.250;2022-07-10T07:27:33;102267.47;;;20.75;60.72
13593;BME280;6867;50.998;4.250;2022-07-10T07:30:04;102250.13;;;20.81;59.97
13593;BME280;6867;50.998;4.250;2022-07-10T07:32:31;102229.78;;;21.41;58.51
13593;BME280;6867;50.998;4.250;2022-07-10T07:35:00;102243.22;;;21.31;58.37
13593;BME280;6867;50.998;4.250;2022-07-10T07:37:37;102257.13;;;21.41;58.84
13593;BME280;6867;50.998;4.250;2022-07-10T07:40:05;102192.75;;;21.22;57.53
13593;BME280;6867;50.998;4.250;2022-07-10T07:42:33;102256.09;;;20.67;59.24
13593;BME280;6867;50.998;4.250;2022-07-10T07:44:59;102249.91;;;20.83;59.06
13593;BME280;6867;50.998;4.250;2022-07-10T07:47:27;102244.94;;;21.20;58.55
13593;BME280;6867;50.998;4.250;2022-07-10T07:49:53;102227.84;;;21.53;57.71
13593;BME280;6867;50.998;4.250;2022-07-10T07:52:22;102190.97;;;21.73;55.99
13593;BME280;6867;50.998;4.250;2022-07-10T07:54:49;102177.28;;;22.23;55.07
13593;BME280;6867;50.998;4.250;2022-07-10T07:57:16;102209.84;;;22.42;55.36
13593;BME280;6867;50.998;4.250;2022-07-10T07:59:43;102181.41;;;22.43;54.16
13593;BME280;6867;50.998;4.250;2022-07-10T08:02:09;102162.28;;;22.48;53.38
13593;BME280;6867;50.998;4.250;2022-07-10T08:04:36;102177.13;;;22.30;53.74
13593;BME280;6867;50.998;4.250;2022-07-10T08:07:03;102166.53;;;22.00;53.54
13593;BME280;6867;50.998;4.250;2022-07-10T08:09:31;102157.19;;;22.34;52.99
13593;BME280;6867;50.998;4.250;2022-07-10T08:11:58;102161.91;;;22.39;52.81
13593;BME280;6867;50.998;4.250;2022-07-10T08:14:25;102157.72;;;22.53;52.73
13593;BME280;6867;50.998;4.250;2022-07-10T08:16:51;102171.66;;;22.74;52.74
13593;BME280;6867;50.998;4.250;2022-07-10T08:19:18;102177.84;;;22.64;52.66
13593;BME280;6867;50.998;4.250;2022-07-10T08:21:45;102165.63;;;22.94;52.12
13593;BME280;6867;50.998;4.250;2022-07-10T08:24:12;102144.16;;;22.63;51.70
13593;BME280;6867;50.998;4.250;2022-07-10T08:26:41;102171.75;;;22.18;52.98
13593;BME280;6867;50.998;4.250;2022-07-10T08:29:08;102203.25;;;22.81;53.16
13593;BME280;6867;50.998;4.250;2022-07-10T08:31:35;102180.88;;;22.90;52.18
13593;BME280;6867;50.998;4.250;2022-07-10T08:34:02;102182.31;;;23.41;51.58
13593;BME280;6867;50.998;4.250;2022-07-10T08:36:29;102166.63;;;24.01;50.33
13593;BME280;6867;50.998;4.250;2022-07-10T08:38:55;102145.31;;;24.13;49.31
13593;BME280;6867;50.998;4.250;2022-07-10T08:41:25;102081.09;;;24.24;47.43
13593;BME280;6867;50.998;4.250;2022-07-10T08:43:54;102099.53;;;25.12;46.87
13593;BME280;6867;50.998;4.250;2022-07-10T08:46:21;102067.59;;;24.91;46.39
13593;BME280;6867;50.998;4.250;2022-07-10T08:48:49;102075.06;;;25.31;45.96
13593;BME280;6867;50.998;4.250;2022-07-10T08:51:24;102073.13;;;25.52;45.79
13593;BME280;6867;50.998;4.250;2022-07-10T08:53:52;102088.16;;;24.73;46.89
13593;BME280;6867;50.998;4.250;2022-07-10T08:56:20;102064.69;;;24.34;46.28
13593;BME280;6867;50.998;4.250;2022-07-10T08:58:48;102129.22;;;23.90;48.05
13593;BME280;6867;50.998;4.250;2022-07-10T09:01:19;102138.50;;;24.89;47.14
13593;BME280;6867;50.998;4.250;2022-07-10T09:03:48;102110.72;;;24.80;46.83
13593;BME280;6867;50.998;4.250;2022-07-10T09:06:15;102098.84;;;24.54;46.52
13593;BME280;6867;50.998;4.250;2022-07-10T09:08:57;102105.16;;;24.54;47.09
13593;BME280;6867;50.998;4.250;2022-07-10T09:11:24;102105.22;;;24.80;46.58
13593;BME280;6867;50.998;4.250;2022-07-10T09:13:56;102137.69;;;24.93;47.02
13593;BME280;6867;50.998;4.250;2022-07-10T09:16:25;102144.44;;;24.60;47.92
13593;BME280;6867;50.998;4.250;2022-07-10T09:18:52;102130.34;;;25.45;46.52
13593;BME280;6867;50.998;4.250;2022-07-10T09:21:19;102108.84;;;26.03;45.42
13593;BME280;6867;50.998;4.250;2022-07-10T09:23:47;102091.69;;;26.31;44.59
13593;BME280;6867;50.998;4.250;2022-07-10T09:26:14;102086.13;;;26.42;44.24
13593;BME280;6867;50.998;4.250;2022-07-10T09:28:41;102063.19;;;25.66;44.38
13593;BME280;6867;50.998;4.250;2022-07-10T09:31:08;102074.25;;;25.51;44.94
13593;BME280;6867;50.998;4.250;2022-07-10T09:33:36;102091.84;;;25.55;45.47
13593;BME280;6867;50.998;4.250;2022-07-10T09:36:05;102032.66;;;25.78;43.71
13593;BME280;6867;50.998;4.250;2022-07-10T09:38:54;102036.50;;;25.92;43.62
13593;BME280;6867;50.998;4.250;2022-07-10T09:41:26;102068.91;;;26.11;43.93
13593;BME280;6867;50.998;4.250;2022-07-10T09:43:54;102061.34;;;26.47;43.04
13593;BME280;6867;50.998;4.250;2022-07-10T09:46:23;102100.66;;;25.26;45.83
13593;BME280;6867;50.998;4.250;2022-07-10T09:49:03;102096.25;;;25.61;44.85
13593;BME280;6867;50.998;4.250;2022-07-10T09:51:31;102036.28;;;25.43;43.96
13593;BME280;6867;50.998;4.250;2022-07-10T09:54:01;102108.34;;;25.75;45.21
13593;BME280;6867;50.998;4.250;2022-07-10T09:56:32;102061.31;;;25.77;44.01
13593;BME280;6867;50.998;4.250;2022-07-10T09:59:00;102037.59;;;25.86;43.12
13593;BME280;6867;50.998;4.250;2022-07-10T10:01:28;102039.56;;;25.60;43.60
13593;BME280;6867;50.998;4.250;2022-07-10T10:03:58;102034.59;;;25.77;42.94
13593;BME280;6867;50.998;4.250;2022-07-10T10:06:30;102037.97;;;26.29;42.53
13593;BME280;6867;50.998;4.250;2022-07-10T10:09:02;102027.09;;;26.63;41.90
13593;BME280;6867;50.998;4.250;2022-07-10T10:11:32;102061.38;;;26.31;43.33
13593;BME280;6867;50.998;4.250;2022-07-10T10:14:01;102080.84;;;25.55;44.22
13593;BME280;6867;50.998;4.250;2022-07-10T10:16:28;102123.22;;;25.85;44.77
13593;BME280;6867;50.998;4.250;2022-07-10T10:18:56;102109.16;;;25.66;45.01
13593;BME280;6867;50.998;4.250;2022-07-10T10:21:43;102122.38;;;25.89;44.60
13593;BME280;6867;50.998;4.250;2022-07-10T10:24:11;102061.06;;;25.27;44.03
13593;BME280;6867;50.998;4.250;2022-07-10T10:26:37;102103.38;;;25.16;45.47
13593;BME280;6867;50.998;4.250;2022-07-10T10:29:06;102122.09;;;25.24;45.27
13593;BME280;6867;50.998;4.250;2022-07-10T10:31:33;102081.38;;;25.67;44.25
13593;BME280;6867;50.998;4.250;2022-07-10T10:34:01;102089.63;;;25.93;43.90
13593;BME280;6867;50.998;4.250;2022-07-10T10:36:46;102046.19;;;26.44;42.27
13593;BME280;6867;50.998;4.250;2022-07-10T10:39:14;102134.56;;;26.63;44.34
13593;BME280;6867;50.998;4.250;2022-07-10T10:41:46;102091.47;;;27.22;42.53
13593;BME280;6867;50.998;4.250;2022-07-10T10:44:24;101989.03;;;26.65;40.96
13593;BME280;6867;50.998;4.250;2022-07-10T10:46:59;102042.75;;;27.07;41.70
13593;BME280;6867;50.998;4.250;2022-07-10T10:49:54;102010.22;;;27.04;41.02
13593;BME280;6867;50.998;4.250;2022-07-10T10:52:25;102029.22;;;26.17;42.66
13593;BME280;6867;50.998;4.250;2022-07-10T10:55:03;102047.66;;;26.21;43.09
13593;BME280;6867;50.998;4.250;2022-07-10T10:57:42;102038.88;;;27.13;41.70
13593;BME280;6867;50.998;4.250;2022-07-10T11:00:33;102068.25;;;27.57;41.93
13593;BME280;6867;50.998;4.250;2022-07-10T11:03:16;102007.00;;;26.97;41.43
13593;BME280;6867;50.998;4.250;2022-07-10T11:05:45;101988.94;;;26.31;41.73
13593;BME280;6867;50.998;4.250;2022-07-10T11:08:14;102030.06;;;27.11;41.75
13593;BME280;6867;50.998;4.250;2022-07-10T11:11:01;101957.13;;;26.59;40.61
13593;BME280;6867;50.998;4.250;2022-07-10T11:13:28;102003.47;;;26.42;41.81
13593;BME280;6867;50.998;4.250;2022-07-10T11:15:56;102017.56;;;25.60;43.61
13593;BME280;6867;50.998;4.250;2022-07-10T11:18:23;102006.03;;;26.28;42.25
13593;BME280;6867;50.998;4.250;2022-07-10T11:20:53;102031.63;;;26.83;42.00
13593;BME280;6867;50.998;4.250;2022-07-10T11:23:48;102001.69;;;27.05;40.95
13593;BME280;6867;50.998;4.250;2022-07-10T11:26:24;102002.09;;;27.52;40.92
13593;BME280;6867;50.998;4.250;2022-07-10T11:28:58;101964.72;;;28.08;39.07
13593;BME280;6867;50.998;4.250;2022-07-10T11:31:27;101968.09;;;28.61;39.11
13593;BME280;6867;50.998;4.250;2022-07-10T11:33:56;102025.66;;;28.92;40.13
13593;BME280;6867;50.998;4.250;2022-07-10T11:36:23;101951.66;;;28.70;38.47
13593;BME280;6867;50.998;4.250;2022-07-10T11:38:58;101944.97;;;27.71;39.72
13593;BME280;6867;50.998;4.250;2022-07-10T11:41:25;101911.31;;;27.74;38.64
13593;BME280;6867;50.998;4.250;2022-07-10T11:43:53;101921.72;;;28.20;38.27
13593;BME280;6867;50.998;4.250;2022-07-10T11:46:21;101911.56;;;28.35;38.06
13593;BME280;6867;50.998;4.250;2022-07-10T11:48:49;101974.06;;;28.30;39.71
13593;BME280;6867;50.998;4.250;2022-07-10T11:51:21;101928.34;;;28.00;38.68
13593;BME280;6867;50.998;4.250;2022-07-10T11:54:00;101962.81;;;27.84;39.98
13593;BME280;6867;50.998;4.250;2022-07-10T11:56:29;101938.44;;;28.10;38.68
13593;BME280;6867;50.998;4.250;2022-07-10T11:58:58;101935.97;;;28.27;38.34
13593;BME280;6867;50.998;4.250;2022-07-10T12:01:25;101963.06;;;28.07;39.22
13593;BME280;6867;50.998;4.250;2022-07-10T12:03:57;101955.78;;;28.86;37.75
13593;BME280;6867;50.998;4.250;2022-07-10T12:06:25;101941.75;;;28.83;38.11
13593;BME280;6867;50.998;4.250;2022-07-10T12:08:52;101954.78;;;28.96;38.04
13593;BME280;6867;50.998;4.250;2022-07-10T12:11:21;101922.94;;;28.85;37.28
13593;BME280;6867;50.998;4.250;2022-07-10T12:13:49;101950.03;;;28.31;38.82
13593;BME280;6867;50.998;4.250;2022-07-10T12:16:17;101964.34;;;28.14;38.84
13593;BME280;6867;50.998;4.250;2022-07-10T12:18:45;101980.34;;;27.69;39.77
13593;BME280;6867;50.998;4.250;2022-07-10T12:21:13;102014.56;;;27.44;41.02
13593;BME280;6867;50.998;4.250;2022-07-10T12:23:41;101997.44;;;27.76;40.40
13593;BME280;6867;50.998;4.250;2022-07-10T12:26:08;101952.13;;;28.39;38.19
13593;BME280;6867;50.998;4.250;2022-07-10T12:28:52;101954.31;;;27.99;39.04
13593;BME280;6867;50.998;4.250;2022-07-10T12:31:20;102000.06;;;27.87;40.34
13593;BME280;6867;50.998;4.250;2022-07-10T12:33:50;102011.00;;;27.73;40.66
13593;BME280;6867;50.998;4.250;2022-07-10T12:36:17;102044.47;;;28.14;41.40
13593;BME280;6867;50.998;4.250;2022-07-10T12:38:53;101972.94;;;28.32;38.90
13593;BME280;6867;50.998;4.250;2022-07-10T12:41:21;102003.44;;;28.45;39.94
13593;BME280;6867;50.998;4.250;2022-07-10T12:43:51;101926.16;;;27.30;39.86
13593;BME280;6867;50.998;4.250;2022-07-10T12:46:19;101985.78;;;27.26;40.69
13593;BME280;6867;50.998;4.250;2022-07-10T12:49:06;101974.22;;;27.24;40.77
13593;BME280;6867;50.998;4.250;2022-07-10T12:51:33;101982.16;;;27.31;40.82
13593;BME280;6867;50.998;4.250;2022-07-10T12:54:01;101999.81;;;27.83;40.65
13593;BME280;6867;50.998;4.250;2022-07-10T12:56:29;102014.88;;;28.58;40.23
13593;BME280;6867;50.998;4.250;2022-07-10T12:58:58;101939.97;;;28.40;39.27
13593;BME280;6867;50.998;4.250;2022-07-10T13:01:27;101931.25;;;27.66;39.49
13593;BME280;6867;50.998;4.250;2022-07-10T13:03:58;101914.53;;;27.10;40.10